Time;durP1;ratioP1;P1;durP2;ratioP2;P2;SDS_P1;SDS_P2;PMS_P1;PMS_P2;Temp;Humidity;BMP_temperature;BMP_pressure;BME280_temperature;BME280_humidity;BME280_pressure;Samples;Min_cycle;Max_cycle;Signal;HPM_P1;HPM_P2
2024/03/18 00:00:23;;;;;;;0.90;0.30;;;;;;;-2.92;54.57;102686.03;5047585;28;20524;-87
2024/03/18 00:02:52;;;;;;;0.60;0.60;;;;;;;-2.92;54.15;102687.72;5048642;28;20455;-86
2024/03/18 00:05:22;;;;;;;0.50;0.50;;;;;;;-2.96;53.93;102676.41;5043193;28;20453;-87
2024/03/18 00:07:50;;;;;;;0.47;0.47;;;;;;;-2.96;54.33;102690.88;5047693;28;20482;-85
2024/03/18 00:10:19;;;;;;;0.50;0.50;;;;;;;-3.00;54.97;102682.09;5049082;28;20489;-87
2024/03/18 00:12:46;;;;;;;2.77;0.80;;;;;;;-2.98;54.06;102685.66;5048042;28;20452;-88
2024/03/18 00:15:16;;;;;;;0.47;0.47;;;;;;;-2.97;54.91;102683.97;5050703;28;20967;-87
2024/03/18 00:17:44;;;;;;;0.77;0.67;;;;;;;-2.99;54.81;102689.00;5045934;28;20509;-86
2024/03/18 00:20:12;;;;;;;0.73;0.30;;;;;;;-2.99;54.31;102690.66;5048916;28;20446;-87
2024/03/18 00:22:42;;;;;;;1.93;0.60;;;;;;;-3.03;54.87;102685.34;5052540;28;21051;-88
2024/03/18 00:25:11;;;;;;;0.27;0.17;;;;;;;-3.03;54.61;102693.03;5048582;28;20457;-86
2024/03/18 00:27:38;;;;;;;0.90;0.60;;;;;;;-3.04;55.00;102691.25;5046762;28;20452;-86
2024/03/18 00:30:07;;;;;;;0.47;0.47;;;;;;;-3.06;55.27;102690.28;5045741;28;20868;-86
2024/03/18 00:32:34;;;;;;;2.20;0.50;;;;;;;-3.08;55.06;102696.09;5048141;28;20438;-83
2024/03/18 00:35:01;;;;;;;0.60;0.30;;;;;;;-3.10;54.92;102687.44;5049881;28;20444;-86
2024/03/18 00:37:29;;;;;;;0.57;0.37;;;;;;;-3.13;55.29;102693.25;5045642;28;20818;-86
2024/03/18 00:39:58;;;;;;;0.60;0.60;;;;;;;-3.16;54.92;102693.06;5044308;28;20453;-86
2024/03/18 00:42:24;;;;;;;1.03;0.40;;;;;;;-3.17;54.75;102688.69;5048665;28;20445;-86
2024/03/18 00:44:53;;;;;;;1.43;0.30;;;;;;;-3.22;54.86;102690.09;5044961;28;20530;-86
2024/03/18 00:47:20;;;;;;;2.20;0.40;;;;;;;-3.21;54.92;102688.44;5051142;28;20298;-85
2024/03/18 00:49:47;;;;;;;0.43;0.43;;;;;;;-3.24;55.20;102684.00;5044444;28;20891;-86
2024/03/18 00:52:14;;;;;;;0.30;0.30;;;;;;;-3.23;55.01;102682.31;5046077;28;20732;-84
2024/03/18 00:54:41;;;;;;;0.47;0.43;;;;;;;-3.23;55.31;102684.88;5043345;28;20431;-86
2024/03/18 00:57:09;;;;;;;1.20;0.30;;;;;;;-3.26;55.13;102680.44;5047715;28;20537;-85
2024/03/18 00:59:36;;;;;;;0.50;0.50;;;;;;;-3.27;55.25;102679.56;5045483;28;20435;-84
2024/03/18 01:02:04;;;;;;;0.47;0.40;;;;;;;-3.28;55.20;102679.44;5045191;28;20443;-85
2024/03/18 01:04:31;;;;;;;0.60;0.50;;;;;;;-3.30;55.71;102679.38;5051805;28;20478;-84
2024/03/18 01:07:00;;;;;;;1.70;0.40;;;;;;;-3.30;55.28;102678.50;5048265;28;20991;-87
2024/03/18 01:09:27;;;;;;;1.30;0.53;;;;;;;-3.32;55.40;102670.69;5048406;28;20514;-85
2024/03/18 01:11:55;;;;;;;0.30;0.30;;;;;;;-3.33;55.03;102657.81;5048356;28;20574;-85
2024/03/18 01:14:23;;;;;;;1.27;0.47;;;;;;;-3.34;55.08;102656.03;5048450;28;20480;-85
2024/03/18 01:16:50;;;;;;;0.50;0.50;;;;;;;-3.40;55.56;102645.41;5050897;28;20427;-86
2024/03/18 01:19:17;;;;;;;0.77;0.30;;;;;;;-3.38;55.88;102654.94;5049221;28;20457;-86
2024/03/18 01:21:45;;;;;;;0.63;0.30;;;;;;;-3.40;55.51;102656.50;5049088;28;20435;-86
2024/03/18 01:24:12;;;;;;;0.40;0.40;;;;;;;-3.41;55.42;102659.00;5046914;28;20851;-85
2024/03/18 01:26:39;;;;;;;0.20;0.20;;;;;;;-3.43;55.56;102655.44;5047450;28;20813;-86
2024/03/18 01:29:06;;;;;;;0.83;0.50;;;;;;;-3.45;55.55;102657.00;5047034;28;20520;-85
2024/03/18 01:31:34;;;;;;;0.80;0.60;;;;;;;-3.47;55.65;102646.69;5040259;28;21012;-84
2024/03/18 01:34:04;;;;;;;0.30;0.30;;;;;;;-3.51;55.79;102640.47;5049619;28;20445;-84
2024/03/18 01:36:32;;;;;;;0.60;0.43;;;;;;;-3.49;55.82;102643.13;5042831;28;21083;-85
2024/03/18 01:38:59;;;;;;;0.40;0.40;;;;;;;-3.51;55.77;102640.47;5047408;28;20444;-86
2024/03/18 01:41:26;;;;;;;0.77;0.20;;;;;;;-3.51;55.90;102642.13;5045412;28;20997;-87
2024/03/18 01:43:53;;;;;;;0.30;0.30;;;;;;;-3.51;55.96;102647.25;5047128;28;20443;-85
2024/03/18 01:46:20;;;;;;;1.30;0.50;;;;;;;-3.54;55.89;102644.50;5048476;28;20450;-85
2024/03/18 01:48:49;;;;;;;0.50;0.37;;;;;;;-3.53;56.06;102644.63;5041378;28;20975;-85
2024/03/18 01:51:16;;;;;;;0.40;0.30;;;;;;;-3.59;55.99;102636.53;5044267;28;20476;-85
2024/03/18 01:53:43;;;;;;;0.30;0.30;;;;;;;-3.57;55.89;102642.63;5049589;28;20534;-85
2024/03/18 01:56:11;;;;;;;0.33;0.33;;;;;;;-3.62;55.93;102632.88;5045494;28;20443;-84
2024/03/18 01:58:40;;;;;;;0.53;0.40;;;;;;;-3.60;56.23;102641.56;5048700;28;20443;-84
2024/03/18 02:01:07;;;;;;;2.57;0.30;;;;;;;-3.63;56.19;102647.34;5048806;28;20459;-84
2024/03/18 02:03:35;;;;;;;1.10;0.50;;;;;;;-3.64;56.10;102644.72;5042536;28;20958;-84
2024/03/18 02:06:04;;;;;;;2.63;0.47;;;;;;;-3.68;55.79;102640.16;5042590;28;20521;-82
2024/03/18 02:08:31;;;;;;;0.20;0.20;;;;;;;-3.70;56.30;102650.31;5040579;28;20545;-83
2024/03/18 02:10:57;;;;;;;1.00;0.30;;;;;;;-3.75;55.87;102641.44;5049479;28;20487;-85
2024/03/18 02:13:24;;;;;;;1.63;0.30;;;;;;;-3.75;56.37;102651.66;5047587;28;20539;-84
2024/03/18 02:15:51;;;;;;;0.40;0.40;;;;;;;-3.78;56.57;102646.34;5041368;28;20485;-84
2024/03/18 02:18:18;;;;;;;0.27;0.27;;;;;;;-3.79;56.73;102644.56;5045070;28;20936;-85
2024/03/18 02:20:45;;;;;;;0.30;0.30;;;;;;;-3.80;56.78;102640.25;5042018;28;20437;-84
2024/03/18 02:23:14;;;;;;;0.40;0.40;;;;;;;-3.82;56.54;102649.47;5046025;28;20444;-84
2024/03/18 02:25:42;;;;;;;0.43;0.30;;;;;;;-3.88;56.37;102633.75;5042829;28;20466;-84
2024/03/18 02:28:09;;;;;;;0.30;0.30;;;;;;;-3.86;56.79;102647.53;5048544;28;20485;-84
2024/03/18 02:30:36;;;;;;;0.23;0.23;;;;;;;-3.87;56.32;102650.88;5043211;28;20482;-84
2024/03/18 02:33:04;;;;;;;0.30;0.20;;;;;;;-3.92;56.67;102637.78;5041368;28;20525;-84
2024/03/18 02:35:31;;;;;;;0.40;0.40;;;;;;;-3.94;56.33;102640.22;5045671;28;20444;-84
2024/03/18 02:37:58;;;;;;;0.23;0.23;;;;;;;-3.92;56.36;102642.88;5039483;28;21043;-83
2024/03/18 02:40:27;;;;;;;0.17;0.17;;;;;;;-3.97;56.33;102640.00;5046054;28;20514;-84
2024/03/18 02:42:54;;;;;;;0.23;0.13;;;;;;;-3.97;56.95;102640.00;5047430;28;20454;-84
2024/03/18 02:45:22;;;;;;;2.13;0.50;;;;;;;-3.98;56.33;102642.47;5047281;28;20888;-83
2024/03/18 02:47:49;;;;;;;0.63;0.40;;;;;;;-4.01;56.52;102638.06;5045947;28;20454;-84
2024/03/18 02:50:18;;;;;;;2.10;0.40;;;;;;;-4.02;56.72;102638.81;5049022;28;20455;-83
2024/03/18 02:52:46;;;;;;;0.87;0.30;;;;;;;-4.02;56.73;102636.25;5049297;28;20476;-83
2024/03/18 02:55:13;;;;;;;0.63;0.37;;;;;;;-4.06;56.87;102633.41;5045093;28;20446;-83
2024/03/18 02:57:42;;;;;;;0.50;0.10;;;;;;;-4.09;56.68;102621.31;5042776;28;20443;-84
2024/03/18 03:00:10;;;;;;;0.17;0.10;;;;;;;-4.08;56.45;102625.63;5049486;28;20456;-84
2024/03/18 03:02:37;;;;;;;0.40;0.37;;;;;;;-4.09;56.53;102628.97;5045159;28;20864;-83
2024/03/18 03:05:05;;;;;;;1.30;0.40;;;;;;;-4.09;56.66;102625.53;5045402;28;20523;-84
2024/03/18 03:07:32;;;;;;;0.43;0.30;;;;;;;-4.11;56.64;102630.53;5043291;28;21055;-84
2024/03/18 03:10:00;;;;;;;0.30;0.30;;;;;;;-4.11;56.97;102625.44;5039350;28;20448;-83
2024/03/18 03:12:27;;;;;;;0.27;0.27;;;;;;;-4.13;56.76;102627.03;5045162;28;20495;-84
2024/03/18 03:14:55;;;;;;;0.30;0.30;;;;;;;-4.12;56.80;102628.78;5048138;28;20459;-83
2024/03/18 03:17:24;;;;;;;0.20;0.20;;;;;;;-4.15;56.97;102633.69;5045583;28;20950;-83
2024/03/18 03:19:51;;;;;;;0.30;0.20;;;;;;;-4.16;56.46;102631.91;5043450;28;20444;-83
2024/03/18 03:22:19;;;;;;;0.10;0.10;;;;;;;-4.25;56.76;102615.94;5045369;28;20435;-83
2024/03/18 03:24:47;;;;;;;0.20;0.20;;;;;;;-4.20;56.88;102627.38;5040468;28;20463;-83
2024/03/18 03:27:14;;;;;;;0.10;0.10;;;;;;;-4.21;56.83;102628.16;5047887;28;21006;-84
2024/03/18 03:29:41;;;;;;;0.10;0.10;;;;;;;-4.22;56.86;102631.50;5045983;28;20538;-83
2024/03/18 03:32:12;;;;;;;0.50;0.30;;;;;;;-4.24;56.88;102622.84;5048337;28;20483;-83
2024/03/18 03:34:39;;;;;;;0.40;0.40;;;;;;;-4.27;57.02;102618.41;5042810;28;20442;-83
2024/03/18 03:37:07;;;;;;;0.57;0.30;;;;;;;-4.26;56.85;102624.41;5042515;28;20478;-83
2024/03/18 03:39:35;;;;;;;0.73;0.30;;;;;;;-4.27;56.75;102622.66;5049402;28;20451;-82
2024/03/18 03:42:04;;;;;;;0.40;0.30;;;;;;;-4.33;56.95;102617.09;5044801;28;20469;-83
2024/03/18 03:44:31;;;;;;;1.00;0.60;;;;;;;-4.35;56.39;102608.47;5047147;28;20446;-84
2024/03/18 03:46:59;;;;;;;0.40;0.40;;;;;;;-4.31;57.11;102620.66;5046204;28;20450;-83
2024/03/18 03:49:28;;;;;;;0.63;0.30;;;;;;;-4.35;56.68;102605.91;5041877;28;20456;-83
2024/03/18 03:51:56;;;;;;;1.77;0.30;;;;;;;-4.35;56.42;102609.34;5051497;28;20515;-83
2024/03/18 03:54:25;;;;;;;0.30;0.20;;;;;;;-4.38;56.67;102609.16;5050324;28;20442;-83
2024/03/18 03:56:52;;;;;;;0.57;0.23;;;;;;;-4.41;56.90;102614.94;5046368;28;20459;-82
2024/03/18 03:59:19;;;;;;;0.20;0.20;;;;;;;-4.38;57.05;102615.94;5042780;28;20446;-83
2024/03/18 04:01:46;;;;;;;0.20;0.20;;;;;;;-4.38;56.40;102627.03;5046453;28;20446;-82
2024/03/18 04:04:14;;;;;;;0.53;0.30;;;;;;;-4.45;56.85;102617.16;5048156;28;20453;-83
2024/03/18 04:06:42;;;;;;;0.27;0.10;;;;;;;-4.41;56.69;102629.38;5051503;28;20478;-82
2024/03/18 04:09:11;;;;;;;0.20;0.20;;;;;;;-4.43;56.91;102631.81;5050483;28;20542;-82
2024/03/18 04:11:39;;;;;;;0.67;0.27;;;;;;;-4.44;56.69;102641.94;5042616;28;20490;-82
2024/03/18 04:14:06;;;;;;;0.33;0.20;;;;;;;-4.45;56.36;102632.50;5043895;28;20448;-84
2024/03/18 04:16:33;;;;;;;0.17;0.17;;;;;;;-4.47;56.79;102639.16;5045770;28;20461;-83
2024/03/18 04:19:00;;;;;;;0.30;0.30;;;;;;;-4.48;56.76;102637.41;5042998;28;20430;-83
2024/03/18 04:21:29;;;;;;;0.40;0.40;;;;;;;-4.50;56.73;102634.75;5049501;28;20957;-82
2024/03/18 04:23:58;;;;;;;0.30;0.30;;;;;;;-4.52;56.85;102636.31;5044868;28;20462;-84
2024/03/18 04:26:25;;;;;;;0.37;0.37;;;;;;;-4.53;57.04;102633.63;5048752;28;20468;-83
2024/03/18 04:28:52;;;;;;;0.40;0.40;;;;;;;-4.55;56.89;102631.00;5050916;28;20441;-82
2024/03/18 04:31:20;;;;;;;0.20;0.20;;;;;;;-4.56;57.00;102639.41;5045191;28;20485;-83
2024/03/18 04:33:47;;;;;;;0.67;0.10;;;;;;;-4.57;56.94;102631.66;5045909;28;20447;-82
2024/03/18 04:36:15;;;;;;;0.67;0.20;;;;;;;-4.60;57.01;102627.22;5046486;28;20436;-83
2024/03/18 04:38:42;;;;;;;1.07;0.30;;;;;;;-4.58;57.09;102629.91;5047780;28;20434;-82
2024/03/18 04:41:10;;;;;;;0.47;0.37;;;;;;;-4.61;56.91;102630.56;5046342;28;20432;-82
2024/03/18 04:43:38;;;;;;;0.30;0.30;;;;;;;-4.61;57.23;102638.25;5045776;28;20447;-83
2024/03/18 04:46:06;;;;;;;1.90;0.57;;;;;;;-4.61;57.00;102635.69;5048745;28;20479;-83
2024/03/18 04:48:33;;;;;;;0.73;0.30;;;;;;;-4.62;57.03;102636.44;5047260;28;20444;-83
2024/03/18 04:51:00;;;;;;;0.43;0.40;;;;;;;-4.66;56.88;102629.38;5048437;28;20452;-83
2024/03/18 04:53:28;;;;;;;1.17;0.40;;;;;;;-4.65;56.89;102636.22;5042737;28;20562;-82
2024/03/18 04:55:55;;;;;;;0.20;0.20;;;;;;;-4.67;57.09;102627.56;5042748;28;20582;-83
2024/03/18 04:58:23;;;;;;;2.20;0.37;;;;;;;-4.65;56.91;102638.78;5042874;28;20451;-82
2024/03/18 05:00:51;;;;;;;0.23;0.20;;;;;;;-4.70;57.22;102637.56;5050156;28;21035;-82
2024/03/18 05:03:18;;;;;;;1.50;0.20;;;;;;;-4.68;57.21;102642.00;5046127;28;20450;-83
2024/03/18 05:05:45;;;;;;;0.60;0.40;;;;;;;-4.67;57.21;102635.22;5043995;28;20581;-83
2024/03/18 05:08:12;;;;;;;0.43;0.43;;;;;;;-4.68;57.21;102639.47;5046117;28;20443;-82
2024/03/18 05:10:40;;;;;;;0.53;0.50;;;;;;;-4.68;56.97;102641.13;5046682;28;20447;-82
2024/03/18 05:13:07;;;;;;;0.20;0.20;;;;;;;-4.67;57.31;102640.34;5045490;28;20549;-81
2024/03/18 05:15:37;;;;;;;1.20;0.27;;;;;;;-4.66;57.25;102637.03;5045255;28;20974;-81
2024/03/18 05:18:06;;;;;;;0.93;0.30;;;;;;;-4.67;57.35;102633.59;5046308;28;20929;-82
2024/03/18 05:20:33;;;;;;;1.90;0.43;;;;;;;-4.66;57.02;102637.91;5049780;28;20444;-82
2024/03/18 05:23:00;;;;;;;0.47;0.40;;;;;;;-4.67;57.42;102631.03;5038479;28;20476;-83
2024/03/18 05:25:28;;;;;;;0.70;0.20;;;;;;;-4.64;57.06;102640.59;5046993;28;20443;-82
2024/03/18 05:27:55;;;;;;;0.50;0.40;;;;;;;-4.64;57.06;102643.13;5045927;28;20445;-82
2024/03/18 05:30:22;;;;;;;0.50;0.30;;;;;;;-4.63;57.26;102639.78;5049861;28;20519;-83
2024/03/18 05:32:51;;;;;;;0.43;0.10;;;;;;;-4.63;57.00;102642.34;5040574;28;21011;-82
2024/03/18 05:35:18;;;;;;;0.30;0.30;;;;;;;-4.65;57.01;102633.69;5047543;28;20505;-81
2024/03/18 05:37:45;;;;;;;0.77;0.47;;;;;;;-4.66;57.04;102626.81;5039396;28;20453;-82
2024/03/18 05:40:12;;;;;;;0.50;0.50;;;;;;;-4.64;57.24;102630.38;5043659;28;20457;-82
2024/03/18 05:42:39;;;;;;;1.33;0.47;;;;;;;-4.59;57.11;102633.22;5041613;28;20427;-83
2024/03/18 05:45:06;;;;;;;0.77;0.30;;;;;;;-4.60;57.35;102626.34;5046542;28;20442;-83
2024/03/18 05:47:33;;;;;;;0.30;0.30;;;;;;;-4.61;57.32;102622.91;5042469;28;20445;-83
2024/03/18 05:50:02;;;;;;;0.20;0.20;;;;;;;-4.56;57.35;102634.31;5051012;28;20514;-83
2024/03/18 05:52:29;;;;;;;1.27;0.40;;;;;;;-4.55;57.24;102641.22;5046285;28;20479;-83
2024/03/18 05:54:56;;;;;;;0.30;0.20;;;;;;;-4.55;56.79;102630.09;5049030;28;20458;-83
2024/03/18 05:57:23;;;;;;;0.20;0.20;;;;;;;-4.52;57.27;102641.41;5046638;28;20467;-82
2024/03/18 05:59:52;;;;;;;0.70;0.40;;;;;;;-4.51;57.34;102643.19;5048434;28;20459;-82
2024/03/18 06:02:19;;;;;;;0.87;0.40;;;;;;;-4.49;57.18;102633.97;5048278;28;20478;-82
2024/03/18 06:04:47;;;;;;;0.60;0.40;;;;;;;-4.46;57.20;102631.59;5045284;28;20442;-82
2024/03/18 06:07:21;;;;;;;5.37;0.37;;;;;;;-4.45;57.40;102635.94;5041653;28;20470;-82
2024/03/18 06:09:48;;;;;;;1.13;0.30;;;;;;;-4.41;57.47;102637.94;5045512;28;20455;-80
2024/03/18 06:12:15;;;;;;;0.80;0.63;;;;;;;-4.38;57.45;102633.81;5044387;28;20508;-83
2024/03/18 06:14:42;;;;;;;1.50;0.40;;;;;;;-4.35;56.86;102644.25;5041241;28;20457;-84
2024/03/18 06:17:09;;;;;;;0.20;0.20;;;;;;;-4.32;57.22;102634.22;5051054;28;20529;-83
2024/03/18 06:19:36;;;;;;;0.20;0.20;;;;;;;-4.30;56.89;102633.56;5042790;28;20506;-84
2024/03/18 06:22:05;;;;;;;0.33;0.33;;;;;;;-4.27;57.27;102628.66;5045625;28;20540;-82
2024/03/18 06:27:15;;;;;;;0.20;0.20;;;;;;;-4.21;57.14;102638.41;5049713;28;20949;-83
2024/03/18 06:29:42;;;;;;;0.47;0.30;;;;;;;-4.18;56.70;102633.50;5040891;28;20448;-84
2024/03/18 06:32:10;;;;;;;1.10;0.37;;;;;;;-4.15;56.77;102632.81;5045148;28;20525;-84
2024/03/18 06:34:37;;;;;;;0.27;0.23;;;;;;;-4.11;56.76;102630.53;5043239;28;20443;-83
2024/03/18 06:37:04;;;;;;;0.60;0.37;;;;;;;-4.07;57.36;102637.66;5049800;28;20455;-83
2024/03/18 06:39:31;;;;;;;0.60;0.30;;;;;;;-4.05;57.31;102623.28;5042835;28;20436;-83
2024/03/18 06:42:00;;;;;;;0.60;0.50;;;;;;;-4.02;57.23;102620.91;5046557;28;20452;-83
2024/03/18 06:44:27;;;;;;;0.47;0.30;;;;;;;-3.96;56.96;102620.44;5040765;28;20555;-84
2024/03/18 06:46:54;;;;;;;0.57;0.40;;;;;;;-3.92;56.74;102617.31;5046437;28;20459;-83
2024/03/18 06:49:21;;;;;;;0.20;0.20;;;;;;;-3.89;57.25;102611.53;5046714;28;20441;-83
2024/03/18 06:51:48;;;;;;;0.57;0.30;;;;;;;-3.84;57.19;102612.72;5041246;28;20449;-83
2024/03/18 06:54:15;;;;;;;0.77;0.10;;;;;;;-3.79;57.03;102616.44;5037503;28;20453;-83
2024/03/18 06:56:42;;;;;;;0.10;0.10;;;;;;;-3.74;57.01;102617.63;5044509;28;20453;-83
2024/03/18 06:59:11;;;;;;;0.00;0.00;;;;;;;-3.69;56.83;102611.16;5042790;28;20528;-83
2024/03/18 07:01:38;;;;;;;0.43;0.30;;;;;;;-3.64;56.95;102609.78;5042974;28;20455;-83
2024/03/18 07:04:05;;;;;;;0.70;0.40;;;;;;;-3.60;56.72;102611.72;5048890;28;20998;-83
2024/03/18 07:06:33;;;;;;;1.03;0.40;;;;;;;-3.56;56.88;102623.94;5047563;28;20846;-83
2024/03/18 07:09:00;;;;;;;0.30;0.20;;;;;;;-3.52;56.59;102613.13;5048080;28;20561;-83
2024/03/18 07:11:27;;;;;;;0.93;0.40;;;;;;;-3.46;56.26;102610.06;5051180;28;20455;-83
2024/03/18 07:13:54;;;;;;;0.13;0.13;;;;;;;-3.40;56.56;102609.56;5048831;28;20974;-83
2024/03/18 07:16:23;;;;;;;0.10;0.10;;;;;;;-3.33;56.54;102609.19;5052453;28;21015;-81
2024/03/18 07:18:50;;;;;;;0.37;0.37;;;;;;;-3.26;56.87;102609.66;5052457;28;20455;-82
2024/03/18 07:21:17;;;;;;;0.43;0.40;;;;;;;-3.18;56.51;102602.47;5052522;28;20537;-83
2024/03/18 07:23:44;;;;;;;0.20;0.20;;;;;;;-3.09;55.70;102604.72;5052569;28;20834;-83
2024/03/18 07:26:11;;;;;;;0.20;0.20;;;;;;;-3.06;56.18;102600.66;5054667;28;20432;-84
2024/03/18 07:28:39;;;;;;;1.10;0.40;;;;;;;-2.92;56.00;102608.31;5056287;28;20454;-83
2024/03/18 07:31:06;;;;;;;0.37;0.37;;;;;;;-2.84;55.77;102604.56;5056467;28;20438;-84
2024/03/18 07:33:34;;;;;;;0.30;0.30;;;;;;;-2.72;55.64;102599.28;5056132;28;20490;-84
2024/03/18 07:36:01;;;;;;;0.30;0.30;;;;;;;-2.62;56.05;102602.50;5056268;28;20531;-84
2024/03/18 07:38:31;;;;;;;1.20;0.30;;;;;;;-2.51;56.56;102599.69;5055922;28;20441;-84
2024/03/18 07:40:58;;;;;;;0.17;0.17;;;;;;;-2.35;55.97;102597.25;5056296;28;20866;-83
2024/03/18 07:43:25;;;;;;;0.30;0.30;;;;;;;-2.20;56.52;102594.69;5055916;28;20459;-83
2024/03/18 07:45:52;;;;;;;0.30;0.30;;;;;;;-2.05;55.90;102594.69;5056177;28;20806;-84
2024/03/18 07:48:19;;;;;;;0.87;0.20;;;;;;;-1.92;55.48;102589.50;5053750;28;20513;-84
2024/03/18 07:50:55;;;;;;;0.53;0.30;;;;;;;-1.77;55.26;102590.38;5056925;28;20470;-84
2024/03/18 07:53:23;;;;;;;0.40;0.40;;;;;;;-1.63;54.60;102592.81;5050633;28;20481;-84
2024/03/18 07:55:59;;;;;;;0.33;0.30;;;;;;;-1.50;54.56;102595.28;5056293;28;20913;-83
2024/03/18 07:58:26;;;;;;;0.40;0.40;;;;;;;-1.38;54.87;102590.84;5055947;28;20470;-85
2024/03/18 08:00:55;;;;;;;0.33;0.23;;;;;;;-1.27;55.41;102583.72;5055824;28;20472;-84
2024/03/18 08:03:22;;;;;;;0.03;0.00;;;;;;;-1.11;55.13;102590.59;5055505;28;20453;-84
2024/03/18 08:05:51;;;;;;;0.27;0.27;;;;;;;-0.98;55.09;102593.00;5055546;28;20449;-83
2024/03/18 08:08:18;;;;;;;0.40;0.40;;;;;;;-0.89;54.59;102572.94;5055293;28;20445;-85
2024/03/18 08:10:45;;;;;;;0.77;0.27;;;;;;;-0.71;54.41;102582.44;5056192;28;20450;-84
2024/03/18 08:13:12;;;;;;;0.63;0.40;;;;;;;-0.57;53.94;102566.91;5056146;28;20492;-83
2024/03/18 08:15:39;;;;;;;0.30;0.20;;;;;;;-0.45;53.92;102569.25;5054902;28;20454;-81
2024/03/18 08:18:06;;;;;;;1.40;0.40;;;;;;;-0.34;53.27;102573.25;5056713;28;20488;-88
2024/03/18 08:20:34;;;;;;;0.40;0.33;;;;;;;-0.26;53.70;102568.50;5056816;28;20442;-84
2024/03/18 08:23:02;;;;;;;0.10;0.10;;;;;;;-0.11;53.20;102565.81;5058227;28;20434;-84
2024/03/18 08:25:29;;;;;;;0.27;0.27;;;;;;;-0.01;53.24;102565.44;5057505;28;20521;-85
2024/03/18 08:27:56;;;;;;;0.97;0.20;;;;;;;0.09;52.09;102565.09;5058413;28;20429;-84
2024/03/18 08:30:23;;;;;;;0.23;0.23;;;;;;;0.18;52.29;102567.22;5059132;28;20952;-80
2024/03/18 08:32:50;;;;;;;0.20;0.20;;;;;;;0.26;51.94;102559.88;5061160;28;20481;-88
2024/03/18 08:35:17;;;;;;;0.20;0.20;;;;;;;0.34;51.79;102576.59;5057516;28;20507;-79
2024/03/18 08:37:44;;;;;;;0.17;0.17;;;;;;;0.40;50.91;102557.97;5059046;28;20925;-89
2024/03/18 08:40:15;;;;;;;0.20;0.20;;;;;;;0.44;50.77;102557.28;5057536;28;20436;-79
2024/03/18 08:42:42;;;;;;;0.83;0.30;;;;;;;0.51;50.07;102557.66;5061061;28;20529;-83
2024/03/18 08:45:09;;;;;;;0.10;0.10;;;;;;;0.58;50.34;102570.00;5057742;28;20581;-88
2024/03/18 08:47:36;;;;;;;0.60;0.53;;;;;;;0.64;50.17;102571.13;5059209;28;20469;-83
2024/03/18 08:50:04;;;;;;;1.40;0.30;;;;;;;0.66;50.03;102570.38;5058477;28;20545;-84
2024/03/18 08:52:31;;;;;;;0.30;0.10;;;;;;;0.65;50.42;102559.97;5058777;28;20451;-88
2024/03/18 08:55:01;;;;;;;0.50;0.40;;;;;;;0.63;50.46;102554.78;5059529;28;20521;-88
2024/03/18 08:57:29;;;;;;;1.43;0.03;;;;;;;0.62;49.97;102560.72;5054615;28;20441;-89
2024/03/18 08:59:57;;;;;;;2.03;0.30;;;;;;;0.61;49.83;102563.25;5059822;28;20988;-82
2024/03/18 09:02:24;;;;;;;1.70;0.40;;;;;;;0.60;49.55;102556.34;5055936;28;20442;-80
2024/03/18 09:04:51;;;;;;;0.97;0.40;;;;;;;0.55;48.51;102559.56;5054939;28;20444;-89
2024/03/18 09:07:18;;;;;;;0.47;0.43;;;;;;;0.51;48.73;102560.25;5054739;28;20583;-84
2024/03/18 09:09:45;;;;;;;0.40;0.40;;;;;;;0.48;48.95;102562.69;5057543;28;20878;-86
2024/03/18 09:12:12;;;;;;;0.27;0.23;;;;;;;0.48;49.19;102566.91;5055317;28;20508;-83
2024/03/18 09:14:40;;;;;;;0.20;0.10;;;;;;;0.46;49.15;102559.13;5054326;28;20920;-84
2024/03/18 09:17:08;;;;;;;0.33;0.33;;;;;;;0.48;48.86;102561.75;5054627;28;20444;-84
2024/03/18 09:19:40;;;;;;;0.00;0.00;;;;;;;0.46;49.77;102554.00;5054824;28;20537;-82
2024/03/18 09:22:08;;;;;;;0.93;0.40;;;;;;;0.45;49.11;102551.31;5058924;28;20449;-88
2024/03/18 09:24:35;;;;;;;0.30;0.17;;;;;;;0.43;49.42;102553.84;5055867;28;20477;-84
2024/03/18 09:27:05;;;;;;;0.30;0.30;;;;;;;0.42;49.33;102554.63;5060779;28;20490;-90
2024/03/18 09:29:32;;;;;;;1.13;0.30;;;;;;;0.40;49.51;102553.69;5061446;28;20987;-82
2024/03/18 09:32:01;;;;;;;0.47;0.47;;;;;;;0.42;49.00;102546.91;5054500;28;20552;-84
2024/03/18 09:34:28;;;;;;;0.10;0.10;;;;;;;0.64;48.74;102556.53;5055277;28;20488;-89
2024/03/18 09:36:55;;;;;;;0.10;0.10;;;;;;;0.75;48.95;102547.59;5057121;28;20485;-86
2024/03/18 09:39:22;;;;;;;0.40;0.30;;;;;;;0.69;48.28;102541.31;5059633;28;20553;-81
2024/03/18 09:41:52;;;;;;;0.20;0.20;;;;;;;0.77;48.74;102539.97;5055459;28;20524;-87
2024/03/18 09:44:19;;;;;;;0.33;0.33;;;;;;;0.85;48.55;102530.91;5055931;28;20444;-85
2024/03/18 09:46:47;;;;;;;0.50;0.37;;;;;;;1.06;48.72;102543.84;5059251;28;20498;-89
2024/03/18 09:49:20;;;;;;;0.20;0.20;;;;;;;1.20;48.87;102539.31;5059624;28;20442;-88
2024/03/18 09:51:48;;;;;;;0.63;0.40;;;;;;;1.29;48.75;102537.13;5056356;28;20482;-84
2024/03/18 09:54:17;;;;;;;0.10;0.10;;;;;;;1.28;48.91;102527.66;5053378;28;20787;-83
2024/03/18 09:56:46;;;;;;;2.23;0.40;;;;;;;1.28;49.20;102540.53;5057055;28;20538;-81
2024/03/18 09:59:13;;;;;;;0.20;0.17;;;;;;;1.26;48.98;102534.41;5058031;28;20470;-85
2024/03/18 10:01:40;;;;;;;0.70;0.23;;;;;;;1.25;49.55;102541.28;5061996;28;20462;-84
2024/03/18 10:04:07;;;;;;;0.37;0.37;;;;;;;1.28;49.60;102537.97;5058841;28;20465;-90
2024/03/18 10:06:37;;;;;;;1.13;0.40;;;;;;;1.23;49.38;102529.13;5066175;28;20557;-89
2024/03/18 10:09:04;;;;;;;0.50;0.30;;;;;;;1.22;49.37;102530.84;5058950;28;20446;-83
2024/03/18 10:11:31;;;;;;;0.03;0.03;;;;;;;1.26;49.31;102542.16;5050140;28;20462;-84
2024/03/18 10:13:58;;;;;;;0.93;0.27;;;;;;;1.30;49.73;102540.59;5054765;28;21019;-85
2024/03/18 10:16:25;;;;;;;0.37;0.37;;;;;;;1.23;49.08;102523.97;5054076;28;20963;-84
2024/03/18 10:18:52;;;;;;;1.07;0.40;;;;;;;1.27;49.23;102533.59;5054083;28;20542;-84
2024/03/18 10:21:19;;;;;;;0.33;0.30;;;;;;;1.26;49.49;102534.41;5053382;28;20458;-85
2024/03/18 10:23:50;;;;;;;1.07;0.50;;;;;;;1.23;49.37;102532.59;5053770;28;20504;-85
2024/03/18 10:26:18;;;;;;;0.70;0.23;;;;;;;1.20;49.16;102531.56;5052736;28;20446;-84
2024/03/18 10:31:16;;;;;;;0.63;0.40;;;;;;;1.14;49.19;102536.47;5023976;28;20495;-67
2024/03/18 10:33:45;;;;;;;1.47;0.40;;;;;;;1.08;49.46;102541.31;5021878;28;20491;-68
2024/03/18 10:36:18;;;;;;;0.10;0.10;;;;;;;1.03;49.70;102544.59;5021911;28;20451;-68
2024/03/18 10:38:48;;;;;;;0.30;0.30;;;;;;;0.98;49.72;102533.19;5021949;28;20440;-67
2024/03/18 10:41:17;;;;;;;0.27;0.27;;;;;;;0.95;49.91;102539.91;5024336;28;20816;-69
2024/03/18 10:43:51;;;;;;;0.70;0.40;;;;;;;0.92;49.62;102548.38;5022868;28;20447;-66
2024/03/18 10:46:18;;;;;;;0.73;0.60;;;;;;;0.92;49.84;102540.66;5021340;28;20460;-69
2024/03/18 10:48:46;;;;;;;0.50;0.30;;;;;;;0.90;49.78;102539.69;5023059;28;20440;-68
2024/03/18 10:51:14;;;;;;;0.80;0.40;;;;;;;0.90;49.67;102544.84;5023965;28;20446;-66
2024/03/18 10:53:42;;;;;;;1.23;0.50;;;;;;;0.88;49.72;102550.75;5020984;28;20486;-67
2024/03/18 10:56:09;;;;;;;0.77;0.37;;;;;;;0.85;49.97;102543.78;5022619;28;20451;-70
2024/03/18 10:58:39;;;;;;;0.37;0.37;;;;;;;0.83;50.01;102539.38;5023540;28;20976;-71
2024/03/18 11:01:06;;;;;;;0.30;0.30;;;;;;;0.82;50.49;102537.56;5023849;28;20518;-70
2024/03/18 11:03:33;;;;;;;0.50;0.40;;;;;;;0.81;50.77;102536.69;5026308;28;20826;-70
2024/03/18 11:06:00;;;;;;;1.40;0.30;;;;;;;0.80;50.46;102535.81;5027929;28;20439;-70
2024/03/18 11:08:28;;;;;;;0.63;0.33;;;;;;;0.81;50.38;102539.28;5025413;28;20480;-70
2024/03/18 11:10:56;;;;;;;0.60;0.50;;;;;;;0.80;50.68;102533.25;5026256;28;20531;-70
2024/03/18 11:13:33;;;;;;;0.40;0.40;;;;;;;0.78;50.85;102521.97;5027442;28;20531;-70
2024/03/18 11:16:06;;;;;;;0.40;0.40;;;;;;;0.76;50.59;102520.16;5026924;28;20522;-66
2024/03/18 11:18:34;;;;;;;1.53;0.50;;;;;;;0.75;50.65;102519.28;5025086;28;20804;-66
2024/03/18 11:21:02;;;;;;;0.60;0.20;;;;;;;0.74;50.75;102516.63;5026301;28;20454;-66
2024/03/18 11:23:31;;;;;;;1.17;0.60;;;;;;;0.73;50.64;102512.28;5027601;28;20526;-66
2024/03/18 11:26:04;;;;;;;0.60;0.50;;;;;;;0.71;50.73;102508.78;5025061;28;20803;-66
2024/03/18 11:28:35;;;;;;;0.93;0.60;;;;;;;0.71;50.50;102509.66;5025356;28;20448;-66
2024/03/18 11:31:04;;;;;;;0.87;0.30;;;;;;;0.71;51.07;102508.78;5027080;28;20481;-66
2024/03/18 11:33:35;;;;;;;1.77;0.63;;;;;;;0.71;50.46;102501.03;5026465;28;20454;-66